sensor_id;sensor_type;location;lat;lon;timestamp;pressure;altitude;pressure_sealevel;temperature;humidity
69173;BME280;56280;49.662;8.408;2023-01-27T00:00:10;101169.50;;;1.39;86.00
69173;BME280;56280;49.662;8.408;2023-01-27T00:02:37;101156.63;;;1.60;85.50
69173;BME280;56280;49.662;8.408;2023-01-27T00:05:02;101173.94;;;1.64;84.80
69173;BME280;56280;49.662;8.408;2023-01-27T00:07:28;101186.28;;;1.60;85.37
69173;BME280;56280;49.662;8.408;2023-01-27T00:09:53;101173.84;;;1.67;85.56
69173;BME280;56280;49.662;8.408;2023-01-27T00:12:21;101183.41;;;1.95;84.97
69173;BME280;56280;49.662;8.408;2023-01-27T00:15:06;101145.50;;;1.78;84.59
69173;BME280;56280;49.662;8.408;2023-01-27T00:17:31;101177.72;;;2.07;84.31
69173;BME280;56280;49.662;8.408;2023-01-27T00:19:57;101154.28;;;2.03;83.59
69173;BME280;56280;49.662;8.408;2023-01-27T00:22:22;101178.25;;;2.17;83.39
69173;BME280;56280;49.662;8.408;2023-01-27T00:25:06;101161.38;;;2.00;83.19
69173;BME280;56280;49.662;8.408;2023-01-27T00:27:32;101156.81;;;2.06;83.55
69173;BME280;56280;49.662;8.408;2023-01-27T00:29:57;101112.22;;;1.82;83.32
69173;BME280;56280;49.662;8.408;2023-01-27T00:32:22;101157.91;;;2.00;83.10
69173;BME280;56280;49.662;8.408;2023-01-27T00:35:07;101150.03;;;2.00;83.07
69173;BME280;56280;49.662;8.408;2023-01-27T00:37:32;101157.34;;;2.15;83.23
69173;BME280;56280;49.662;8.408;2023-01-27T00:39:58;101125.00;;;1.91;82.70
69173;BME280;56280;49.662;8.408;2023-01-27T00:42:23;101146.22;;;2.09;82.56
69173;BME280;56280;49.662;8.408;2023-01-27T00:44:48;101113.75;;;1.88;82.89
69173;BME280;56280;49.662;8.408;2023-01-27T00:47:32;101146.28;;;2.07;82.50
69173;BME280;56280;49.662;8.408;2023-01-27T00:49:58;101123.66;;;2.05;82.92
69173;BME280;56280;49.662;8.408;2023-01-27T00:52:23;101150.16;;;2.21;82.41
69173;BME280;56280;49.662;8.408;2023-01-27T00:54:48;101143.34;;;2.16;82.50
69173;BME280;56280;49.662;8.408;2023-01-27T00:57:13;101155.25;;;2.25;82.79
69173;BME280;56280;49.662;8.408;2023-01-27T00:59:38;101116.53;;;2.08;82.88
69173;BME280;56280;49.662;8.408;2023-01-27T01:02:04;101144.03;;;2.22;82.47
69173;BME280;56280;49.662;8.408;2023-01-27T01:04:29;101154.41;;;2.25;82.42
69173;BME280;56280;49.662;8.408;2023-01-27T01:06:54;101163.16;;;2.24;82.59
69173;BME280;56280;49.662;8.408;2023-01-27T01:09:20;101145.13;;;2.16;82.80
69173;BME280;56280;49.662;8.408;2023-01-27T01:11:45;101146.06;;;2.13;82.83
69173;BME280;56280;49.662;8.408;2023-01-27T01:14:10;101147.84;;;2.13;83.03
69173;BME280;56280;49.662;8.408;2023-01-27T01:16:35;101139.97;;;2.13;82.81
69173;BME280;56280;49.662;8.408;2023-01-27T01:19:01;101167.47;;;2.26;82.89
69173;BME280;56280;49.662;8.408;2023-01-27T01:21:26;101163.28;;;2.21;82.92
69173;BME280;56280;49.662;8.408;2023-01-27T01:23:51;101139.22;;;2.09;82.56
69173;BME280;56280;49.662;8.408;2023-01-27T01:26:17;101157.03;;;2.25;82.62
69173;BME280;56280;49.662;8.408;2023-01-27T01:28:43;101152.69;;;2.24;82.06
69173;BME280;56280;49.662;8.408;2023-01-27T01:31:12;101151.31;;;2.13;82.12
69173;BME280;56280;49.662;8.408;2023-01-27T01:33:38;101177.94;;;2.01;82.53
69173;BME280;56280;49.662;8.408;2023-01-27T01:36:08;101160.94;;;1.88;83.23
69173;BME280;56280;49.662;8.408;2023-01-27T01:38:34;101139.56;;;1.73;83.35
69173;BME280;56280;49.662;8.408;2023-01-27T01:40:59;101156.16;;;1.47;84.00
69173;BME280;56280;49.662;8.408;2023-01-27T01:43:25;101157.53;;;1.32;84.89
69173;BME280;56280;49.662;8.408;2023-01-27T01:45:58;101148.88;;;1.28;86.08
69173;BME280;56280;49.662;8.408;2023-01-27T01:48:34;101177.72;;;1.55;85.78
69173;BME280;56280;49.662;8.408;2023-01-27T01:51:12;101137.50;;;1.01;86.23
69173;BME280;56280;49.662;8.408;2023-01-27T01:56:20;101163.69;;;1.58;86.57
69173;BME280;56280;49.662;8.408;2023-01-27T01:58:47;101117.97;;;1.40;85.72
69173;BME280;56280;49.662;8.408;2023-01-27T02:01:14;101162.84;;;1.82;85.45
69173;BME280;56280;49.662;8.408;2023-01-27T02:03:41;101140.72;;;1.91;84.41
69173;BME280;56280;49.662;8.408;2023-01-27T02:06:09;101169.75;;;2.10;84.08
69173;BME280;56280;49.662;8.408;2023-01-27T02:08:41;101150.56;;;1.85;84.25
69173;BME280;56280;49.662;8.408;2023-01-27T02:11:09;101148.72;;;1.87;84.20
69173;BME280;56280;49.662;8.408;2023-01-27T02:13:34;101157.31;;;1.92;84.00
69173;BME280;56280;49.662;8.408;2023-01-27T02:16:00;101117.09;;;1.41;84.21
69173;BME280;56280;49.662;8.408;2023-01-27T02:18:27;101119.06;;;1.06;86.05
69173;BME280;56280;49.662;8.408;2023-01-27T02:20:53;101143.09;;;1.19;86.85
69173;BME280;56280;49.662;8.408;2023-01-27T02:23:46;101152.53;;;1.51;86.27
69173;BME280;56280;49.662;8.408;2023-01-27T02:26:28;101154.09;;;1.84;85.68
69173;BME280;56280;49.662;8.408;2023-01-27T02:29:01;101143.66;;;1.82;85.10
69173;BME280;56280;49.662;8.408;2023-01-27T02:31:26;101087.28;;;1.70;85.12
69173;BME280;56280;49.662;8.408;2023-01-27T02:33:56;101150.47;;;2.13;84.24
69173;BME280;56280;49.662;8.408;2023-01-27T02:36:22;101119.69;;;1.68;84.07
69173;BME280;56280;49.662;8.408;2023-01-27T02:38:53;101140.06;;;1.85;83.63
69173;BME280;56280;49.662;8.408;2023-01-27T02:41:38;101138.81;;;1.43;84.96
69173;BME280;56280;49.662;8.408;2023-01-27T02:44:05;101135.41;;;1.13;86.63
69173;BME280;56280;49.662;8.408;2023-01-27T02:46:31;101140.38;;;1.22;87.23
69173;BME280;56280;49.662;8.408;2023-01-27T02:48:56;101128.06;;;0.67;89.06
69173;BME280;56280;49.662;8.408;2023-01-27T02:51:22;101167.03;;;0.47;91.52
69173;BME280;56280;49.662;8.408;2023-01-27T02:53:47;101143.22;;;0.26;92.69
69173;BME280;56280;49.662;8.408;2023-01-27T02:56:12;101160.00;;;0.16;93.95
69173;BME280;56280;49.662;8.408;2023-01-27T02:58:38;101158.69;;;0.01;95.15
69173;BME280;56280;49.662;8.408;2023-01-27T03:01:03;101131.06;;;-0.08;95.23
69173;BME280;56280;49.662;8.408;2023-01-27T03:03:29;101160.31;;;0.05;95.36
69173;BME280;56280;49.662;8.408;2023-01-27T03:05:54;101168.81;;;0.13;95.63
69173;BME280;56280;49.662;8.408;2023-01-27T03:08:19;101179.72;;;0.29;95.94
69173;BME280;56280;49.662;8.408;2023-01-27T03:10:49;101151.22;;;-0.13;96.38
69173;BME280;56280;49.662;8.408;2023-01-27T03:13:14;101123.66;;;-0.25;96.81
69173;BME280;56280;49.662;8.408;2023-01-27T03:15:39;101171.47;;;0.12;97.04
69173;BME280;56280;49.662;8.408;2023-01-27T03:18:23;101169.75;;;0.11;96.86
69173;BME280;56280;49.662;8.408;2023-01-27T03:20:49;101169.59;;;0.17;96.79
69173;BME280;56280;49.662;8.408;2023-01-27T03:23:16;101190.50;;;0.17;97.56
69173;BME280;56280;49.662;8.408;2023-01-27T03:25:46;101138.50;;;-0.27;97.94
69173;BME280;56280;49.662;8.408;2023-01-27T03:28:13;101163.66;;;-0.24;99.33
69173;BME280;56280;49.662;8.408;2023-01-27T03:30:39;101182.69;;;0.15;99.46
69173;BME280;56280;49.662;8.408;2023-01-27T03:33:05;101134.88;;;-0.21;98.82
69173;BME280;56280;49.662;8.408;2023-01-27T03:35:33;101183.19;;;-0.03;99.48
69173;BME280;56280;49.662;8.408;2023-01-27T03:38:03;101140.38;;;-0.32;100.00
69173;BME280;56280;49.662;8.408;2023-01-27T03:40:47;101172.22;;;-0.17;100.00
69173;BME280;56280;49.662;8.408;2023-01-27T03:43:30;101141.28;;;-0.33;100.00
69173;BME280;56280;49.662;8.408;2023-01-27T03:46:14;101170.16;;;-0.05;100.00
69173;BME280;56280;49.662;8.408;2023-01-27T03:48:47;101116.16;;;-0.37;100.00
69173;BME280;56280;49.662;8.408;2023-01-27T03:51:14;101185.66;;;0.02;100.00
69173;BME280;56280;49.662;8.408;2023-01-27T03:53:40;101163.88;;;0.03;100.00
69173;BME280;56280;49.662;8.408;2023-01-27T03:56:05;101127.28;;;-0.30;99.98
69173;BME280;56280;49.662;8.408;2023-01-27T03:58:33;101157.84;;;0.01;100.00
69173;BME280;56280;49.662;8.408;2023-01-27T04:01:04;101183.06;;;0.34;99.45
69173;BME280;56280;49.662;8.408;2023-01-27T04:03:32;101197.78;;;0.37;98.50
69173;BME280;56280;49.662;8.408;2023-01-27T04:06:19;101195.44;;;0.28;98.30
69173;BME280;56280;49.662;8.408;2023-01-27T04:09:05;101201.47;;;0.30;98.78
69173;BME280;56280;49.662;8.408;2023-01-27T04:11:31;101195.69;;;0.18;99.27
69173;BME280;56280;49.662;8.408;2023-01-27T04:14:15;101201.31;;;0.36;98.94
69173;BME280;56280;49.662;8.408;2023-01-27T04:16:41;101170.78;;;0.36;97.92
69173;BME280;56280;49.662;8.408;2023-01-27T04:19:08;101178.81;;;0.62;97.45
69173;BME280;56280;49.662;8.408;2023-01-27T04:21:34;101180.22;;;0.73;96.21
69173;BME280;56280;49.662;8.408;2023-01-27T04:24:00;101171.78;;;0.64;95.72
69173;BME280;56280;49.662;8.408;2023-01-27T04:26:26;101113.25;;;0.07;96.50
69173;BME280;56280;49.662;8.408;2023-01-27T04:29:00;101163.13;;;-0.03;98.43
69173;BME280;56280;49.662;8.408;2023-01-27T04:31:26;101119.34;;;-0.26;99.76
69173;BME280;56280;49.662;8.408;2023-01-27T04:33:51;101172.84;;;0.25;99.07
69173;BME280;56280;49.662;8.408;2023-01-27T04:36:16;101184.56;;;0.10;99.91
69173;BME280;56280;49.662;8.408;2023-01-27T04:38:42;101182.97;;;0.05;100.00
69173;BME280;56280;49.662;8.408;2023-01-27T04:41:07;101184.84;;;0.64;98.82
69173;BME280;56280;49.662;8.408;2023-01-27T04:43:33;101177.78;;;0.03;99.05
69173;BME280;56280;49.662;8.408;2023-01-27T04:45:58;101166.72;;;-0.07;100.00
69173;BME280;56280;49.662;8.408;2023-01-27T04:48:23;101196.97;;;0.02;100.00
69173;BME280;56280;49.662;8.408;2023-01-27T04:50:49;101174.50;;;0.29;100.00
69173;BME280;56280;49.662;8.408;2023-01-27T04:53:14;101171.94;;;0.26;99.61
69173;BME280;56280;49.662;8.408;2023-01-27T04:55:41;101192.38;;;0.12;100.00
69173;BME280;56280;49.662;8.408;2023-01-27T04:58:08;101160.03;;;-0.17;100.00
69173;BME280;56280;49.662;8.408;2023-01-27T05:00:34;101160.22;;;-0.25;100.00
69173;BME280;56280;49.662;8.408;2023-01-27T05:02:59;101211.75;;;0.03;100.00
69173;BME280;56280;49.662;8.408;2023-01-27T05:05:24;101193.91;;;-0.14;100.00
69173;BME280;56280;49.662;8.408;2023-01-27T05:07:50;101172.13;;;-0.13;100.00
69173;BME280;56280;49.662;8.408;2023-01-27T05:10:15;101190.34;;;-0.11;100.00
69173;BME280;56280;49.662;8.408;2023-01-27T05:12:40;101216.69;;;0.14;100.00
69173;BME280;56280;49.662;8.408;2023-01-27T05:15:06;101199.72;;;-0.03;100.00
69173;BME280;56280;49.662;8.408;2023-01-27T05:17:32;101192.88;;;-0.08;100.00
69173;BME280;56280;49.662;8.408;2023-01-27T05:19:58;101177.03;;;-0.02;100.00
69173;BME280;56280;49.662;8.408;2023-01-27T05:22:23;101186.41;;;0.40;100.00
69173;BME280;56280;49.662;8.408;2023-01-27T05:24:49;101182.34;;;0.59;100.00
69173;BME280;56280;49.662;8.408;2023-01-27T05:27:15;101175.44;;;0.58;98.82
69173;BME280;56280;49.662;8.408;2023-01-27T05:29:41;101194.59;;;0.26;99.79
69173;BME280;56280;49.662;8.408;2023-01-27T05:32:06;101161.03;;;-0.23;100.00
69173;BME280;56280;49.662;8.408;2023-01-27T05:34:32;101176.00;;;-0.29;100.00
69173;BME280;56280;49.662;8.408;2023-01-27T05:36:57;101209.59;;;-0.15;100.00
69173;BME280;56280;49.662;8.408;2023-01-27T05:39:22;101217.34;;;-0.11;100.00
69173;BME280;56280;49.662;8.408;2023-01-27T05:41:47;101183.56;;;-0.19;100.00
69173;BME280;56280;49.662;8.408;2023-01-27T05:44:13;101226.41;;;0.09;100.00
69173;BME280;56280;49.662;8.408;2023-01-27T05:46:39;101224.53;;;0.14;100.00
69173;BME280;56280;49.662;8.408;2023-01-27T05:49:05;101221.59;;;0.26;100.00
69173;BME280;56280;49.662;8.408;2023-01-27T05:51:34;101193.91;;;0.19;100.00
69173;BME280;56280;49.662;8.408;2023-01-27T05:54:00;101219.00;;;0.26;100.00
69173;BME280;56280;49.662;8.408;2023-01-27T05:56:25;101218.28;;;0.21;100.00
69173;BME280;56280;49.662;8.408;2023-01-27T05:58:55;101223.66;;;0.15;100.00
69173;BME280;56280;49.662;8.408;2023-01-27T06:01:28;101232.22;;;0.20;100.00
69173;BME280;56280;49.662;8.408;2023-01-27T06:03:54;101240.31;;;0.09;100.00
69173;BME280;56280;49.662;8.408;2023-01-27T06:06:22;101235.97;;;0.10;100.00
69173;BME280;56280;49.662;8.408;2023-01-27T06:08:49;101247.19;;;0.13;100.00
69173;BME280;56280;49.662;8.408;2023-01-27T06:11:16;101183.59;;;-0.20;100.00
69173;BME280;56280;49.662;8.408;2023-01-27T06:13:43;101229.91;;;0.08;100.00
69173;BME280;56280;49.662;8.408;2023-01-27T06:16:11;101158.03;;;-0.42;100.00
69173;BME280;56280;49.662;8.408;2023-01-27T06:18:38;101249.03;;;0.10;100.00
69173;BME280;56280;49.662;8.408;2023-01-27T06:21:06;101245.59;;;0.08;100.00
69173;BME280;56280;49.662;8.408;2023-01-27T06:23:31;101248.41;;;0.00;100.00
69173;BME280;56280;49.662;8.408;2023-01-27T06:26:01;101232.03;;;-0.08;100.00
69173;BME280;56280;49.662;8.408;2023-01-27T06:28:27;101222.63;;;-0.14;100.00
69173;BME280;56280;49.662;8.408;2023-01-27T06:30:52;101230.28;;;-0.06;100.00
69173;BME280;56280;49.662;8.408;2023-01-27T06:33:18;101178.69;;;-0.32;100.00
69173;BME280;56280;49.662;8.408;2023-01-27T06:35:43;101230.91;;;0.04;100.00
69173;BME280;56280;49.662;8.408;2023-01-27T06:38:11;101209.53;;;-0.12;100.00
69173;BME280;56280;49.662;8.408;2023-01-27T06:40:38;101249.84;;;0.12;100.00
69173;BME280;56280;49.662;8.408;2023-01-27T06:43:10;101222.47;;;-0.08;100.00
69173;BME280;56280;49.662;8.408;2023-01-27T06:45:35;101231.06;;;-0.03;100.00
69173;BME280;56280;49.662;8.408;2023-01-27T06:48:00;101235.50;;;-0.06;100.00
69173;BME280;56280;49.662;8.408;2023-01-27T06:50:28;101235.44;;;-0.03;100.00
69173;BME280;56280;49.662;8.408;2023-01-27T06:53:01;101222.63;;;-0.14;100.00
69173;BME280;56280;49.662;8.408;2023-01-27T06:55:27;101241.50;;;-0.03;100.00
69173;BME280;56280;49.662;8.408;2023-01-27T06:57:52;101227.84;;;-0.14;100.00
69173;BME280;56280;49.662;8.408;2023-01-27T07:00:19;101157.22;;;-0.45;100.00
69173;BME280;56280;49.662;8.408;2023-01-27T07:02:45;101207.81;;;-0.13;99.44
69173;BME280;56280;49.662;8.408;2023-01-27T07:05:10;101230.97;;;0.01;98.81
69173;BME280;56280;49.662;8.408;2023-01-27T07:07:36;101251.72;;;0.07;98.53
69173;BME280;56280;49.662;8.408;2023-01-27T07:10:02;101212.47;;;-0.26;97.76
69173;BME280;56280;49.662;8.408;2023-01-27T07:12:28;101260.44;;;0.06;97.84
69173;BME280;56280;49.662;8.408;2023-01-27T07:14:53;101267.34;;;0.10;98.56
69173;BME280;56280;49.662;8.408;2023-01-27T07:17:18;101286.91;;;0.28;98.56
69173;BME280;56280;49.662;8.408;2023-01-27T07:19:44;101259.50;;;0.10;98.33
69173;BME280;56280;49.662;8.408;2023-01-27T07:22:09;101286.94;;;0.26;98.87
69173;BME280;56280;49.662;8.408;2023-01-27T07:24:34;101279.56;;;0.08;99.21
69173;BME280;56280;49.662;8.408;2023-01-27T07:26:59;101301.72;;;0.27;99.22
69173;BME280;56280;49.662;8.408;2023-01-27T07:29:25;101295.41;;;0.36;99.14
69173;BME280;56280;49.662;8.408;2023-01-27T07:31:51;101265.16;;;0.26;99.23
69173;BME280;56280;49.662;8.408;2023-01-27T07:34:16;101285.25;;;0.24;98.96
69173;BME280;56280;49.662;8.408;2023-01-27T07:36:41;101257.84;;;0.06;99.13
69173;BME280;56280;49.662;8.408;2023-01-27T07:39:07;101273.19;;;0.20;99.04
69173;BME280;56280;49.662;8.408;2023-01-27T07:41:32;101283.84;;;0.10;98.91
69173;BME280;56280;49.662;8.408;2023-01-27T07:43:58;101317.25;;;0.33;98.47
69173;BME280;56280;49.662;8.408;2023-01-27T07:46:23;101285.97;;;0.30;97.57
69173;BME280;56280;49.662;8.408;2023-01-27T07:48:48;101309.28;;;0.38;96.84
69173;BME280;56280;49.662;8.408;2023-01-27T07:51:14;101273.06;;;0.24;96.19
69173;BME280;56280;49.662;8.408;2023-01-27T07:53:39;101295.53;;;0.31;95.41
69173;BME280;56280;49.662;8.408;2023-01-27T07:56:05;101252.81;;;-0.02;95.79
69173;BME280;56280;49.662;8.408;2023-01-27T07:58:37;101307.81;;;0.28;95.77
69173;BME280;56280;49.662;8.408;2023-01-27T08:01:07;101317.91;;;0.42;95.55
69173;BME280;56280;49.662;8.408;2023-01-27T08:03:34;101313.53;;;0.44;96.05
69173;BME280;56280;49.662;8.408;2023-01-27T08:06:06;101315.47;;;0.68;95.67
69173;BME280;56280;49.662;8.408;2023-01-27T08:08:32;101323.53;;;0.61;93.91
69173;BME280;56280;49.662;8.408;2023-01-27T08:11:02;101325.22;;;0.63;94.63
69173;BME280;56280;49.662;8.408;2023-01-27T08:13:29;101330.97;;;0.76;94.01
69173;BME280;56280;49.662;8.408;2023-01-27T08:15:59;101341.50;;;1.06;94.04
69173;BME280;56280;49.662;8.408;2023-01-27T08:18:26;101343.59;;;0.93;92.87
69173;BME280;56280;49.662;8.408;2023-01-27T08:20:53;101292.69;;;0.73;93.03
69173;BME280;56280;49.662;8.408;2023-01-27T08:23:19;101257.94;;;0.68;91.81
69173;BME280;56280;49.662;8.408;2023-01-27T08:25:50;101337.97;;;1.38;91.42
69173;BME280;56280;49.662;8.408;2023-01-27T08:28:17;101304.75;;;1.40;90.16
69173;BME280;56280;49.662;8.408;2023-01-27T08:31:11;101335.25;;;1.41;88.47
69173;BME280;56280;49.662;8.408;2023-01-27T08:33:38;101248.59;;;0.91;89.51
69173;BME280;56280;49.662;8.408;2023-01-27T08:36:06;101246.03;;;1.19;89.24
69173;BME280;56280;49.662;8.408;2023-01-27T08:38:32;101298.88;;;1.02;90.44
69173;BME280;56280;49.662;8.408;2023-01-27T08:41:02;101323.00;;;0.81;91.15
69173;BME280;56280;49.662;8.408;2023-01-27T08:43:27;101349.13;;;0.82;92.09
69173;BME280;56280;49.662;8.408;2023-01-27T08:45:52;101342.81;;;0.89;93.54
69173;BME280;56280;49.662;8.408;2023-01-27T08:48:19;101248.13;;;0.45;91.76
69173;BME280;56280;49.662;8.408;2023-01-27T08:50:46;101335.69;;;0.95;92.31
69173;BME280;56280;49.662;8.408;2023-01-27T08:53:12;101252.31;;;0.51;91.38
69173;BME280;56280;49.662;8.408;2023-01-27T08:55:37;101355.97;;;1.19;91.40
69173;BME280;56280;49.662;8.408;2023-01-27T08:58:02;101341.69;;;0.98;91.80
69173;BME280;56280;49.662;8.408;2023-01-27T09:00:27;101344.66;;;0.86;92.88
69173;BME280;56280;49.662;8.408;2023-01-27T09:02:53;101353.00;;;1.00;93.20
69173;BME280;56280;49.662;8.408;2023-01-27T09:05:19;101357.59;;;0.92;92.74
69173;BME280;56280;49.662;8.408;2023-01-27T09:07:45;101354.09;;;0.91;93.25
69173;BME280;56280;49.662;8.408;2023-01-27T09:10:11;101336.06;;;0.82;93.87
69173;BME280;56280;49.662;8.408;2023-01-27T09:12:37;101345.59;;;0.83;93.73
69173;BME280;56280;49.662;8.408;2023-01-27T09:15:03;101341.22;;;0.85;93.67
69173;BME280;56280;49.662;8.408;2023-01-27T09:17:28;101327.59;;;0.72;92.90
69173;BME280;56280;49.662;8.408;2023-01-27T09:19:53;101357.25;;;1.04;92.82
69173;BME280;56280;49.662;8.408;2023-01-27T09:22:19;101360.81;;;1.02;92.43
69173;BME280;56280;49.662;8.408;2023-01-27T09:24:44;101374.41;;;1.46;91.08
69173;BME280;56280;49.662;8.408;2023-01-27T09:27:09;101357.22;;;1.37;89.93
69173;BME280;56280;49.662;8.408;2023-01-27T09:29:35;101357.75;;;1.17;91.26
69173;BME280;56280;49.662;8.408;2023-01-27T09:32:01;101388.78;;;1.31;92.82
69173;BME280;56280;49.662;8.408;2023-01-27T09:34:26;101387.56;;;1.13;91.81
69173;BME280;56280;49.662;8.408;2023-01-27T09:36:56;101371.97;;;1.08;91.91
69173;BME280;56280;49.662;8.408;2023-01-27T09:39:25;101371.06;;;1.09;91.43
69173;BME280;56280;49.662;8.408;2023-01-27T09:47:26;101397.28;;;1.08;92.33
69173;BME280;56280;49.662;8.408;2023-01-27T09:50:11;101364.19;;;1.05;92.89
69173;BME280;56280;49.662;8.408;2023-01-27T09:52:53;101381.72;;;1.03;92.87
69173;BME280;56280;49.662;8.408;2023-01-27T10:06:14;101349.94;;;0.84;91.28
69173;BME280;56280;49.662;8.408;2023-01-27T10:11:51;101375.50;;;1.06;92.40
69173;BME280;56280;49.662;8.408;2023-01-27T10:19:29;101396.19;;;1.78;91.28
69173;BME280;56280;49.662;8.408;2023-01-27T10:27:26;101397.13;;;1.45;91.08
69173;BME280;56280;49.662;8.408;2023-01-27T10:30:14;101358.66;;;1.77;90.13
69173;BME280;56280;49.662;8.408;2023-01-27T10:35:30;101383.44;;;1.95;90.41
69173;BME280;56280;49.662;8.408;2023-01-27T10:41:14;101373.47;;;2.07;91.45
69173;BME280;56280;49.662;8.408;2023-01-27T10:43:51;101331.34;;;1.85;90.34
69173;BME280;56280;49.662;8.408;2023-01-27T10:46:35;101355.00;;;1.81;92.13
69173;BME280;56280;49.662;8.408;2023-01-27T10:49:11;101349.97;;;1.75;92.36
69173;BME280;56280;49.662;8.408;2023-01-27T10:51:48;101375.59;;;1.94;92.29
69173;BME280;56280;49.662;8.408;2023-01-27T10:54:25;101325.28;;;1.54;94.31
69173;BME280;56280;49.662;8.408;2023-01-27T10:57:03;101366.16;;;2.16;93.07
69173;BME280;56280;49.662;8.408;2023-01-27T11:02:01;101363.41;;;1.93;94.75
69173;BME280;56280;49.662;8.408;2023-01-27T11:04:33;101356.75;;;1.82;94.58
69173;BME280;56280;49.662;8.408;2023-01-27T11:07:04;101301.19;;;1.71;94.01
69173;BME280;56280;49.662;8.408;2023-01-27T11:09:35;101300.41;;;1.69;94.56
69173;BME280;56280;49.662;8.408;2023-01-27T11:12:12;101323.84;;;1.72;94.77
69173;BME280;56280;49.662;8.408;2023-01-27T11:14:48;101343.38;;;2.18;94.10
69173;BME280;56280;49.662;8.408;2023-01-27T11:17:23;101356.56;;;2.15;93.06
69173;BME280;56280;49.662;8.408;2023-01-27T11:20:43;101346.50;;;2.57;93.14
69173;BME280;56280;49.662;8.408;2023-01-27T11:22:50;101341.09;;;3.12;90.79
69173;BME280;56280;49.662;8.408;2023-01-27T11:25:36;101319.44;;;2.29;90.36
69173;BME280;56280;49.662;8.408;2023-01-27T11:33:59;101260.34;;;1.92;91.96
69173;BME280;56280;49.662;8.408;2023-01-27T11:36:29;101320.28;;;2.30;92.75
69173;BME280;56280;49.662;8.408;2023-01-27T11:38:55;101297.50;;;2.05;92.32
69173;BME280;56280;49.662;8.408;2023-01-27T11:41:22;101343.19;;;2.51;91.53
69173;BME280;56280;49.662;8.408;2023-01-27T11:43:48;101343.34;;;2.97;90.00
69173;BME280;56280;49.662;8.408;2023-01-27T11:46:20;101314.00;;;2.61;90.02
69173;BME280;56280;49.662;8.408;2023-01-27T11:48:49;101308.03;;;3.06;89.67
69173;BME280;56280;49.662;8.408;2023-01-27T11:51:22;101239.69;;;2.35;88.71
69173;BME280;56280;49.662;8.408;2023-01-27T11:54:27;101353.53;;;2.56;89.25
69173;BME280;56280;49.662;8.408;2023-01-27T11:57:15;101138.47;;;1.27;89.92
69173;BME280;56280;49.662;8.408;2023-01-27T11:59:44;101239.16;;;2.00;90.08
69173;BME280;56280;49.662;8.408;2023-01-27T12:02:25;101337.97;;;2.23;90.67
69173;BME280;56280;49.662;8.408;2023-01-27T12:05:17;101283.69;;;2.00;90.73
69173;BME280;56280;49.662;8.408;2023-01-27T12:07:58;101335.22;;;2.54;88.44
69173;BME280;56280;49.662;8.408;2023-01-27T12:10:33;101342.00;;;2.60;87.66
69173;BME280;56280;49.662;8.408;2023-01-27T12:13:07;101320.22;;;2.31;87.73
69173;BME280;56280;49.662;8.408;2023-01-27T12:15:33;101336.31;;;2.47;88.11
69173;BME280;56280;49.662;8.408;2023-01-27T12:18:02;101341.97;;;2.35;83.90
69173;BME280;56280;49.662;8.408;2023-01-27T12:20:39;101339.13;;;2.41;85.24
69173;BME280;56280;49.662;8.408;2023-01-27T12:23:18;101330.56;;;3.12;83.50
69173;BME280;56280;49.662;8.408;2023-01-27T12:25:46;101308.19;;;3.49;80.43
69173;BME280;56280;49.662;8.408;2023-01-27T12:28:37;101333.50;;;3.51;79.69
69173;BME280;56280;49.662;8.408;2023-01-27T12:31:21;101335.84;;;2.61;81.34
69173;BME280;56280;49.662;8.408;2023-01-27T12:34:06;101286.81;;;2.63;82.48
69173;BME280;56280;49.662;8.408;2023-01-27T12:36:38;101337.97;;;2.75;81.87
69173;BME280;56280;49.662;8.408;2023-01-27T12:39:04;101308.94;;;2.29;82.28
69173;BME280;56280;49.662;8.408;2023-01-27T12:41:32;101295.13;;;2.49;83.74
69173;BME280;56280;49.662;8.408;2023-01-27T12:44:14;101323.19;;;2.98;85.60
69173;BME280;56280;49.662;8.408;2023-01-27T12:46:53;101303.50;;;2.86;85.25
69173;BME280;56280;49.662;8.408;2023-01-27T12:49:20;101322.72;;;2.86;83.84
69173;BME280;56280;49.662;8.408;2023-01-27T12:51:53;101287.38;;;2.71;85.60
69173;BME280;56280;49.662;8.408;2023-01-27T12:54:22;101324.38;;;2.89;85.43
69173;BME280;56280;49.662;8.408;2023-01-27T12:56:49;101317.72;;;2.80;81.82
69173;BME280;56280;49.662;8.408;2023-01-27T12:59:16;101326.13;;;2.90;84.63
69173;BME280;56280;49.662;8.408;2023-01-27T13:01:43;101321.59;;;2.94;86.42
69173;BME280;56280;49.662;8.408;2023-01-27T13:04:22;101305.75;;;2.97;85.34
69173;BME280;56280;49.662;8.408;2023-01-27T13:07:04;101327.84;;;3.15;84.97
69173;BME280;56280;49.662;8.408;2023-01-27T13:12:22;101282.81;;;3.47;82.12
69173;BME280;56280;49.662;8.408;2023-01-27T13:15:04;101311.84;;;3.44;83.00
69173;BME280;56280;49.662;8.408;2023-01-27T13:20:02;101267.59;;;2.63;82.88
69173;BME280;56280;49.662;8.408;2023-01-27T13:22:41;101298.22;;;3.11;82.69
69173;BME280;56280;49.662;8.408;2023-01-27T13:25:22;101316.13;;;3.23;81.38
69173;BME280;56280;49.662;8.408;2023-01-27T13:27:54;101289.69;;;2.81;83.14
69173;BME280;56280;49.662;8.408;2023-01-27T13:30:29;101325.72;;;3.24;82.23
69173;BME280;56280;49.662;8.408;2023-01-27T13:33:02;101301.78;;;2.85;80.16
69173;BME280;56280;49.662;8.408;2023-01-27T13:35:36;101259.38;;;2.72;82.21
69173;BME280;56280;49.662;8.408;2023-01-27T13:38:17;101301.47;;;3.41;82.19
69173;BME280;56280;49.662;8.408;2023-01-27T13:40:45;101313.16;;;3.09;84.17
69173;BME280;56280;49.662;8.408;2023-01-27T13:43:33;101315.28;;;3.23;85.31
69173;BME280;56280;49.662;8.408;2023-01-27T13:46:09;101295.31;;;2.95;81.37
69173;BME280;56280;49.662;8.408;2023-01-27T13:48:45;101284.16;;;3.12;83.44
69173;BME280;56280;49.662;8.408;2023-01-27T13:51:18;101269.22;;;2.90;81.07
69173;BME280;56280;49.662;8.408;2023-01-27T13:53:50;101312.09;;;3.60;81.56
69173;BME280;56280;49.662;8.408;2023-01-27T13:56:30;101322.59;;;3.38;82.29
69173;BME280;56280;49.662;8.408;2023-01-27T14:02:36;101316.13;;;3.23;85.13
69173;BME280;56280;49.662;8.408;2023-01-27T14:05:27;101319.59;;;3.25;86.37